createdAt,value
2018-09-17T00:01:19.043Z,3.13
2018-09-17T00:03:51.445Z,4.17
2018-09-17T00:06:23.898Z,3.83
2018-09-17T00:08:56.629Z,3.53
2018-09-17T00:11:29.053Z,3.73
2018-09-17T00:14:01.465Z,4.00
2018-09-17T00:16:33.961Z,3.80
2018-09-17T00:19:06.383Z,3.60
2018-09-17T00:21:38.810Z,3.53
2018-09-17T00:24:11.255Z,4.13
2018-09-17T00:26:43.670Z,3.87
2018-09-17T00:29:16.107Z,3.90
2018-09-17T00:31:48.560Z,4.47
2018-09-17T00:34:21.015Z,4.30
2018-09-17T00:36:53.434Z,4.20
2018-09-17T00:39:25.878Z,3.97
2018-09-17T00:41:58.289Z,4.37
2018-09-17T00:44:30.705Z,4.20
2018-09-17T00:47:03.172Z,4.17
2018-09-17T00:49:35.593Z,3.87
2018-09-17T00:52:08.065Z,4.40
2018-09-17T00:54:40.504Z,4.73
2018-09-17T00:57:12.911Z,4.70
2018-09-17T00:59:45.330Z,4.40
2018-09-17T01:02:17.792Z,5.03
2018-09-17T01:04:50.201Z,4.10
2018-09-17T01:07:22.602Z,4.80
2018-09-17T01:09:55.018Z,4.10
2018-09-17T01:12:27.418Z,4.13
2018-09-17T01:14:59.874Z,5.50
2018-09-17T01:17:32.273Z,5.33
2018-09-17T01:20:04.677Z,5.30
2018-09-17T01:22:37.090Z,5.80
2018-09-17T01:25:09.497Z,5.90
2018-09-17T01:27:41.922Z,5.83
2018-09-17T01:30:14.350Z,5.50
2018-09-17T01:32:46.737Z,5.23
2018-09-17T01:35:19.250Z,4.67
2018-09-17T01:37:51.638Z,4.73
2018-09-17T01:40:24.047Z,4.90
2018-09-17T01:42:56.454Z,5.03
2018-09-17T01:45:28.873Z,5.47
2018-09-17T01:48:01.270Z,5.17
2018-09-17T01:50:33.709Z,5.43
2018-09-17T01:53:06.106Z,5.57
2018-09-17T01:55:38.529Z,5.07
2018-09-17T01:58:10.922Z,5.37
2018-09-17T02:00:43.342Z,5.00
2018-09-17T02:03:15.747Z,5.53
2018-09-17T02:05:48.161Z,4.70
2018-09-17T02:08:20.594Z,5.30
2018-09-17T02:10:53.005Z,4.67
2018-09-17T02:13:25.408Z,4.67
2018-09-17T02:15:57.829Z,5.10
2018-09-17T02:18:30.286Z,4.80
2018-09-17T02:21:02.757Z,5.17
2018-09-17T02:23:35.149Z,4.43
2018-09-17T02:26:07.573Z,4.40
2018-09-17T02:28:39.982Z,4.60
2018-09-17T02:31:12.390Z,5.00
2018-09-17T02:33:44.789Z,4.57
2018-09-17T02:36:17.294Z,4.63
2018-09-17T02:38:49.695Z,5.00
2018-09-17T02:41:22.105Z,5.30
2018-09-17T02:43:54.544Z,4.50
2018-09-17T02:46:26.942Z,4.70
2018-09-17T02:48:59.459Z,4.83
2018-09-17T02:51:31.889Z,4.63
2018-09-17T02:54:04.318Z,4.70
2018-09-17T02:56:36.738Z,4.60
2018-09-17T02:59:09.141Z,5.17
2018-09-17T03:01:41.575Z,5.27
2018-09-17T03:04:13.990Z,5.30
2018-09-17T03:06:46.475Z,5.10
2018-09-17T03:09:18.886Z,5.37
2018-09-17T03:11:51.358Z,5.07
2018-09-17T03:14:28.053Z,5.83
2018-09-17T03:17:06.073Z,5.83
2018-09-17T03:19:38.488Z,5.53
2018-09-17T03:22:10.909Z,5.40
2018-09-17T03:24:43.347Z,5.63
2018-09-17T03:27:15.989Z,4.80
2018-09-17T03:29:48.403Z,5.30
2018-09-17T03:32:20.839Z,5.57
2018-09-17T03:34:53.245Z,4.90
2018-09-17T03:37:25.666Z,4.87
2018-09-17T03:39:59.061Z,4.90
2018-09-17T03:42:31.482Z,4.60
2018-09-17T03:45:03.894Z,5.40
2018-09-17T03:47:36.609Z,5.30
2018-09-17T03:50:09.013Z,5.30
2018-09-17T03:52:41.458Z,5.47
2018-09-17T03:55:13.872Z,5.60
2018-09-17T03:57:46.298Z,5.47
2018-09-17T04:00:18.698Z,5.87
2018-09-17T04:02:51.121Z,5.30
2018-09-17T04:05:23.570Z,5.50
2018-09-17T04:07:55.983Z,5.67
2018-09-17T04:10:28.385Z,5.53
2018-09-17T04:13:00.791Z,5.87
2018-09-17T04:15:33.197Z,5.87
2018-09-17T04:18:05.616Z,5.33
2018-09-17T04:20:38.038Z,5.23
2018-09-17T04:23:10.489Z,6.07
2018-09-17T04:25:42.881Z,5.43
2018-09-17T04:28:15.364Z,5.30
2018-09-17T04:30:47.757Z,5.53
2018-09-17T04:33:20.170Z,5.60
2018-09-17T04:35:52.581Z,5.20
2018-09-17T04:38:24.995Z,5.40
2018-09-17T04:40:58.254Z,5.60
2018-09-17T04:43:30.666Z,5.70
2018-09-17T04:46:03.065Z,6.00
2018-09-17T04:48:35.518Z,5.90
2018-09-17T04:51:07.936Z,6.40
2018-09-17T04:53:40.342Z,5.50
2018-09-17T04:56:12.745Z,6.57
2018-09-17T04:58:45.704Z,6.30
2018-09-17T05:01:18.581Z,6.33
2018-09-17T05:03:52.764Z,6.30
2018-09-17T05:06:25.391Z,6.77
2018-09-17T05:08:57.814Z,6.20
2018-09-17T05:11:30.261Z,6.67
2018-09-17T05:14:02.701Z,6.03
2018-09-17T05:16:35.108Z,5.90
2018-09-17T05:19:07.825Z,5.37
2018-09-17T05:21:40.345Z,6.17
2018-09-17T05:24:12.767Z,6.10
2018-09-17T05:26:46.259Z,6.20
2018-09-17T05:29:18.714Z,6.40
2018-09-17T05:31:51.125Z,6.30
2018-09-17T05:34:23.582Z,6.00
2018-09-17T05:36:55.993Z,6.43
2018-09-17T05:39:28.422Z,6.17
2018-09-17T05:42:00.822Z,5.33
2018-09-17T05:44:33.372Z,6.03
2018-09-17T05:47:05.678Z,5.70
2018-09-17T05:49:38.114Z,5.67
2018-09-17T05:52:10.541Z,6.17
2018-09-17T05:54:43.066Z,6.60
2018-09-17T05:57:15.469Z,5.63
2018-09-17T05:59:47.912Z,5.77
2018-09-17T06:02:20.313Z,5.60
2018-09-17T06:04:52.730Z,6.10
2018-09-17T06:07:25.150Z,5.83
2018-09-17T06:09:57.562Z,5.57
2018-09-17T06:12:30.073Z,5.37
2018-09-17T06:15:02.567Z,5.30
2018-09-17T06:17:35.093Z,4.90
2018-09-17T06:20:07.543Z,4.97
2018-09-17T06:22:39.984Z,5.27
2018-09-17T06:25:12.374Z,4.13
2018-09-17T06:27:44.790Z,4.50
2018-09-17T06:30:17.232Z,3.87
2018-09-17T06:32:49.689Z,3.70
2018-09-17T06:35:22.108Z,4.30
2018-09-17T06:37:54.514Z,4.40
2018-09-17T06:40:26.914Z,4.40
2018-09-17T06:42:59.360Z,4.20
2018-09-17T06:45:31.739Z,4.22
2018-09-17T06:48:04.152Z,4.42
2018-09-17T06:50:36.574Z,4.00
2018-09-17T06:53:09.014Z,4.53
2018-09-17T06:55:41.514Z,3.83
2018-09-17T06:58:13.918Z,3.98
2018-09-17T07:00:46.310Z,3.58
2018-09-17T07:03:18.727Z,3.80
2018-09-17T07:05:51.149Z,4.25
2018-09-17T07:08:23.570Z,4.20
2018-09-17T07:10:55.986Z,3.70
2018-09-17T07:13:28.453Z,4.40
2018-09-17T07:16:00.859Z,4.10
2018-09-17T07:18:33.284Z,4.10
2018-09-17T07:21:05.785Z,3.83
2018-09-17T07:23:38.234Z,3.62
2018-09-17T07:26:10.670Z,3.50
2018-09-17T07:28:43.098Z,4.20
2018-09-17T07:31:15.662Z,4.20
2018-09-17T07:33:48.142Z,3.90
2018-09-17T07:36:20.831Z,3.60
2018-09-17T07:38:53.267Z,3.47
2018-09-17T07:41:25.665Z,3.77
2018-09-17T07:43:58.852Z,3.85
2018-09-17T07:46:31.274Z,3.80
2018-09-17T07:49:03.690Z,3.50
2018-09-17T07:51:36.101Z,3.80
2018-09-17T07:54:08.554Z,4.83
2018-09-17T07:56:40.978Z,3.87
2018-09-17T07:59:13.510Z,4.53
2018-09-17T08:01:45.935Z,4.00
2018-09-17T08:04:18.381Z,4.30
2018-09-17T08:06:50.797Z,4.73
2018-09-17T08:09:23.310Z,4.60
2018-09-17T08:11:55.848Z,4.50
2018-09-17T08:14:28.282Z,4.30
2018-09-17T08:17:00.717Z,4.30
2018-09-17T08:19:33.201Z,4.50
2018-09-17T08:22:05.627Z,4.03
2018-09-17T08:24:38.095Z,4.07
2018-09-17T08:27:10.477Z,4.23
2018-09-17T08:29:42.928Z,4.10
2018-09-17T08:32:15.329Z,3.80
2018-09-17T08:34:47.758Z,3.80
2018-09-17T08:37:20.179Z,4.10
2018-09-17T08:39:52.638Z,4.77
2018-09-17T08:42:25.046Z,3.80
2018-09-17T08:44:57.468Z,3.70
2018-09-17T08:47:29.949Z,3.70
2018-09-17T08:50:02.370Z,3.57
2018-09-17T08:52:34.777Z,3.83
2018-09-17T08:55:07.230Z,3.50
2018-09-17T08:57:39.667Z,3.40
2018-09-17T09:00:12.241Z,3.73
2018-09-17T09:02:44.686Z,4.07
2018-09-17T09:05:17.216Z,3.70
2018-09-17T09:07:49.631Z,3.87
2018-09-17T09:10:22.070Z,3.37
2018-09-17T09:12:55.250Z,3.80
2018-09-17T09:15:28.801Z,3.37
2018-09-17T09:18:01.490Z,3.30
2018-09-17T09:20:33.917Z,3.37
2018-09-17T09:23:06.326Z,3.30
2018-09-17T09:25:38.750Z,4.07
2018-09-17T09:28:11.192Z,2.87
2018-09-17T09:30:43.620Z,3.43
2018-09-17T09:33:16.039Z,3.40
2018-09-17T09:35:48.456Z,2.70
2018-09-17T09:38:20.867Z,3.40
2018-09-17T09:40:53.302Z,3.00
2018-09-17T09:43:25.724Z,2.90
2018-09-17T09:45:58.295Z,2.72
2018-09-17T09:48:30.717Z,3.27
2018-09-17T09:51:03.239Z,3.40
2018-09-17T09:53:35.679Z,3.53
2018-09-17T09:56:08.117Z,3.23
2018-09-17T09:58:40.542Z,3.77
2018-09-17T10:01:12.966Z,3.03
2018-09-17T10:03:45.379Z,3.40
2018-09-17T10:06:17.809Z,2.80
2018-09-17T10:08:50.204Z,2.90
2018-09-17T10:11:22.625Z,3.43
2018-09-17T10:13:55.045Z,3.30
2018-09-17T10:16:27.472Z,2.60
2018-09-17T10:18:59.885Z,2.90
2018-09-17T10:21:32.346Z,2.75
2018-09-17T10:24:04.810Z,2.90
2018-09-17T10:26:37.225Z,2.90
2018-09-17T10:29:09.662Z,2.80
2018-09-17T10:31:42.389Z,2.47
2018-09-17T10:34:15.174Z,2.45
2018-09-17T10:36:47.611Z,2.52
2018-09-17T10:39:20.022Z,2.58
2018-09-17T10:41:52.457Z,2.50
2018-09-17T10:44:24.926Z,2.30
2018-09-17T10:46:57.400Z,2.52
2018-09-17T10:49:29.758Z,2.47
2018-09-17T10:52:02.178Z,2.70
2018-09-17T10:54:34.680Z,2.72
2018-09-17T10:57:07.134Z,2.45
2018-09-17T10:59:39.561Z,2.40
2018-09-17T11:02:11.997Z,2.10
2018-09-17T11:04:44.417Z,2.00
2018-09-17T11:07:17.153Z,2.20
2018-09-17T11:09:49.550Z,2.02
2018-09-17T11:12:21.958Z,2.40
2018-09-17T11:14:54.352Z,2.40
2018-09-17T11:17:26.873Z,2.30
2018-09-17T11:19:59.322Z,1.92
2018-09-17T11:22:31.795Z,2.10
2018-09-17T11:25:04.514Z,2.12
2018-09-17T11:27:36.925Z,2.10
2018-09-17T11:30:09.313Z,2.77
2018-09-17T11:32:41.791Z,2.30
2018-09-17T11:35:14.457Z,2.10
2018-09-17T11:37:46.862Z,2.40
2018-09-17T11:40:19.261Z,2.17
2018-09-17T11:42:51.688Z,2.00
2018-09-17T11:45:24.102Z,1.98
2018-09-17T11:47:56.527Z,2.52
2018-09-17T11:50:28.930Z,2.17
2018-09-17T11:53:01.338Z,2.52
2018-09-17T11:55:33.750Z,2.47
2018-09-17T11:58:06.177Z,2.10
2018-09-17T12:00:38.605Z,2.27
2018-09-17T12:03:11.018Z,2.45
2018-09-17T12:05:43.543Z,2.50
2018-09-17T12:08:15.945Z,2.40
2018-09-17T12:10:48.416Z,1.98
2018-09-17T12:13:20.841Z,2.25
2018-09-17T12:15:53.274Z,2.75
2018-09-17T12:18:25.681Z,2.22
2018-09-17T12:20:58.109Z,2.10
2018-09-17T12:23:30.525Z,2.20
2018-09-17T12:26:03.243Z,2.08
2018-09-17T12:28:35.666Z,2.35
2018-09-17T12:31:08.104Z,1.95
2018-09-17T12:33:40.548Z,2.30
2018-09-17T12:36:12.986Z,2.15
2018-09-17T12:38:45.426Z,2.08
2018-09-17T12:41:18.442Z,2.60
2018-09-17T12:43:50.857Z,2.05
2018-09-17T12:46:23.280Z,2.00
2018-09-17T12:48:55.691Z,2.15
2018-09-17T12:51:28.234Z,2.67
2018-09-17T12:54:00.642Z,2.08
2018-09-17T12:56:33.063Z,2.15
2018-09-17T12:59:05.494Z,2.12
2018-09-17T13:01:37.913Z,1.95
2018-09-17T13:04:10.452Z,1.80
2018-09-17T13:06:42.864Z,2.10
2018-09-17T13:09:15.392Z,2.15
2018-09-17T13:11:48.115Z,2.27
2018-09-17T13:14:20.566Z,2.25
2018-09-17T13:16:53.019Z,2.30
2018-09-17T13:19:25.434Z,2.20
2018-09-17T13:21:57.965Z,2.12
2018-09-17T13:24:30.354Z,2.42
2018-09-17T13:27:02.762Z,2.00
2018-09-17T13:29:35.172Z,2.20
2018-09-17T13:32:07.679Z,1.87
2018-09-17T13:34:40.573Z,2.20
2018-09-17T13:37:13.000Z,2.47
2018-09-17T13:39:45.410Z,2.47
2018-09-17T13:42:17.871Z,2.20
2018-09-17T13:44:50.266Z,1.98
2018-09-17T13:47:22.673Z,2.67
2018-09-17T13:49:55.091Z,2.20
2018-09-17T13:52:27.567Z,2.25
2018-09-17T13:55:00.003Z,2.35
2018-09-17T13:57:32.405Z,2.20
2018-09-17T14:00:05.032Z,2.33
2018-09-17T14:02:37.462Z,2.02
2018-09-17T14:05:09.905Z,2.50
2018-09-17T14:07:42.304Z,2.40
2018-09-17T14:10:14.842Z,2.40
2018-09-17T14:12:47.238Z,2.27
2018-09-17T14:15:19.641Z,2.12
2018-09-17T14:17:52.058Z,1.98
2018-09-17T14:20:24.289Z,2.27
2018-09-17T14:22:56.783Z,2.33
2018-09-17T14:25:29.146Z,2.35
2018-09-17T14:28:01.580Z,2.30
2018-09-17T14:30:33.999Z,2.30
2018-09-17T14:33:06.473Z,2.25
2018-09-17T14:35:38.910Z,2.98
2018-09-17T14:38:11.305Z,2.30
2018-09-17T14:40:43.709Z,2.27
2018-09-17T14:43:16.142Z,2.20
2018-09-17T14:45:48.529Z,2.00
2018-09-17T14:48:20.953Z,2.40
2018-09-17T14:50:53.377Z,2.00
2018-09-17T14:53:25.882Z,2.12
2018-09-17T14:55:58.201Z,1.95
2018-09-17T14:58:30.606Z,2.08
2018-09-17T15:01:03.060Z,2.12
2018-09-17T15:03:35.432Z,2.10
2018-09-17T15:06:07.931Z,1.90
2018-09-17T15:08:40.407Z,2.40
2018-09-17T15:11:12.794Z,2.47
2018-09-17T15:13:45.210Z,2.58
2018-09-17T15:16:17.667Z,2.37
2018-09-17T15:18:50.136Z,2.17
2018-09-17T15:21:22.551Z,2.52
2018-09-17T15:23:55.043Z,2.00
2018-09-17T15:26:27.532Z,2.10
2018-09-17T15:28:59.857Z,2.50
2018-09-17T15:31:32.304Z,2.27
2018-09-17T15:34:04.719Z,2.27
2018-09-17T15:36:37.253Z,2.40
2018-09-17T15:39:09.738Z,2.08
2018-09-17T15:41:42.157Z,2.22
2018-09-17T15:44:14.662Z,2.25
2018-09-17T15:46:47.005Z,2.08
2018-09-17T15:49:19.432Z,2.27
2018-09-17T15:51:51.899Z,2.15
2018-09-17T15:54:24.280Z,2.30
2018-09-17T15:56:56.693Z,2.08
2018-09-17T15:59:29.118Z,2.35
2018-09-17T16:02:01.545Z,2.20
2018-09-17T16:04:33.966Z,2.40
2018-09-17T16:07:06.377Z,2.27
2018-09-17T16:09:38.802Z,2.25
2018-09-17T16:12:11.197Z,2.50
2018-09-17T16:14:43.919Z,3.00
2018-09-17T16:17:16.325Z,2.30
2018-09-17T16:19:48.775Z,2.40
2018-09-17T16:22:21.152Z,2.90
2018-09-17T16:24:53.590Z,2.77
2018-09-17T16:27:26.004Z,2.55
2018-09-17T16:29:58.428Z,2.60
2018-09-17T16:32:31.066Z,2.67
2018-09-17T16:35:03.506Z,2.60
2018-09-17T16:37:35.907Z,2.55
2018-09-17T16:40:08.330Z,2.33
2018-09-17T16:42:40.747Z,2.52
2018-09-17T16:45:13.166Z,2.90
2018-09-17T16:47:45.570Z,2.98
2018-09-17T16:50:18.009Z,2.80
2018-09-17T16:52:50.409Z,2.80
2018-09-17T16:55:22.821Z,2.95
2018-09-17T16:57:55.224Z,3.05
2018-09-17T17:00:27.634Z,3.30
2018-09-17T17:03:00.038Z,2.77
2018-09-17T17:05:33.118Z,2.80
2018-09-17T17:08:05.513Z,3.10
2018-09-17T17:10:37.980Z,3.10
2018-09-17T17:13:10.436Z,2.80
2018-09-17T17:15:42.882Z,2.92
2018-09-17T17:18:16.090Z,3.05
2018-09-17T17:20:48.729Z,3.17
2018-09-17T17:23:21.134Z,3.08
2018-09-17T17:25:53.549Z,2.87
2018-09-17T17:28:25.954Z,3.37
2018-09-17T17:30:58.363Z,3.15
2018-09-17T17:33:30.750Z,3.72
2018-09-17T17:36:03.283Z,3.37
2018-09-17T17:38:35.682Z,3.62
2018-09-17T17:41:08.091Z,3.77
2018-09-17T17:43:40.490Z,3.87
2018-09-17T17:46:13.078Z,3.85
2018-09-17T17:48:45.353Z,3.98
2018-09-17T17:51:17.790Z,3.55
2018-09-17T17:53:50.186Z,3.90
2018-09-17T17:56:22.696Z,3.70
2018-09-17T17:58:55.089Z,3.92
2018-09-17T18:01:27.539Z,3.80
2018-09-17T18:03:59.946Z,4.22
2018-09-17T18:06:32.493Z,4.30
2018-09-17T18:09:07.991Z,3.80
2018-09-17T18:11:40.434Z,4.17
2018-09-17T18:14:12.844Z,4.10
2018-09-17T18:16:45.258Z,4.00
2018-09-17T18:19:17.665Z,3.65
2018-09-17T18:21:50.099Z,3.65
2018-09-17T18:24:22.502Z,3.80
2018-09-17T18:26:55.023Z,4.10
2018-09-17T18:29:27.350Z,4.50
2018-09-17T18:31:59.778Z,3.93
2018-09-17T18:34:32.199Z,4.60
2018-09-17T18:37:05.650Z,3.87
2018-09-17T18:39:38.157Z,4.43
2018-09-17T18:42:10.471Z,7.83
2018-09-17T18:44:42.931Z,8.00
2018-09-17T18:47:15.297Z,5.80
2018-09-17T18:49:47.709Z,4.90
2018-09-17T18:52:20.141Z,4.33
2018-09-17T18:54:52.553Z,4.40
2018-09-17T18:57:25.040Z,4.33
2018-09-17T18:59:57.452Z,4.10
2018-09-17T19:02:29.825Z,4.27
2018-09-17T19:05:02.258Z,3.60
2018-09-17T19:07:34.720Z,3.70
2018-09-17T19:10:07.248Z,3.77
2018-09-17T19:12:39.800Z,3.60
2018-09-17T19:15:12.323Z,4.70
2018-09-17T19:17:44.733Z,4.33
2018-09-17T19:20:17.366Z,5.17
2018-09-17T19:22:49.824Z,5.13
2018-09-17T19:25:22.158Z,3.87
2018-09-17T19:27:54.641Z,4.23
2018-09-17T19:30:27.030Z,4.50
2018-09-17T19:32:59.606Z,4.93
2018-09-17T19:35:32.048Z,4.40
2018-09-17T19:38:04.619Z,5.17
2018-09-17T19:40:37.049Z,4.80
2018-09-17T19:43:09.497Z,4.27
2018-09-17T19:45:41.938Z,4.10
2018-09-17T19:48:14.392Z,4.87
2018-09-17T19:50:46.804Z,6.03
2018-09-17T19:53:19.233Z,4.60
2018-09-17T19:55:51.699Z,6.67
2018-09-17T19:58:24.102Z,4.50
2018-09-17T20:00:56.668Z,7.10
2018-09-17T20:03:35.661Z,7.53
2018-09-17T20:06:08.078Z,6.30
2018-09-17T20:08:40.497Z,8.80
2018-09-17T20:11:12.911Z,6.20
2018-09-17T20:13:45.313Z,4.67
2018-09-17T20:16:18.476Z,4.20
2018-09-17T20:18:50.901Z,4.97
2018-09-17T20:21:23.293Z,3.77
2018-09-17T20:23:55.693Z,4.13
2018-09-17T20:26:28.103Z,4.60
2018-09-17T20:29:00.511Z,4.60
2018-09-17T20:31:32.960Z,3.50
2018-09-17T20:34:05.460Z,3.20
2018-09-17T20:36:37.878Z,3.17
2018-09-17T20:39:10.274Z,3.20
2018-09-17T20:41:42.673Z,3.47
2018-09-17T20:44:15.070Z,3.40
2018-09-17T20:46:47.517Z,3.37
2018-09-17T20:49:19.934Z,3.23
2018-09-17T20:51:52.382Z,3.00
2018-09-17T20:54:24.775Z,2.80
2018-09-17T20:56:57.186Z,2.87
2018-09-17T20:59:29.577Z,2.93
2018-09-17T21:02:01.990Z,3.27
2018-09-17T21:04:34.425Z,2.90
2018-09-17T21:07:06.926Z,2.97
2018-09-17T21:09:39.290Z,3.47
2018-09-17T21:12:11.771Z,3.40
2018-09-17T21:14:44.164Z,3.10
2018-09-17T21:17:16.637Z,3.10
2018-09-17T21:19:49.085Z,3.23
2018-09-17T21:22:21.498Z,3.30
2018-09-17T21:24:53.991Z,3.30
2018-09-17T21:27:26.366Z,3.07
2018-09-17T21:29:58.782Z,3.20
2018-09-17T21:32:31.207Z,3.43
2018-09-17T21:35:03.628Z,3.20
2018-09-17T21:37:36.045Z,3.20
2018-09-17T21:40:08.470Z,3.57
2018-09-17T21:42:40.897Z,3.20
2018-09-17T21:45:13.305Z,3.07
2018-09-17T21:47:45.754Z,3.60
2018-09-17T21:50:18.182Z,3.73
2018-09-17T21:52:50.618Z,3.03
2018-09-17T21:55:23.130Z,3.10
2018-09-17T21:57:55.552Z,2.77
2018-09-17T22:00:28.097Z,3.10
2018-09-17T22:03:00.526Z,2.97
2018-09-17T22:05:32.988Z,2.80
2018-09-17T22:08:05.413Z,3.00
2018-09-17T22:10:37.817Z,3.30
2018-09-17T22:13:10.550Z,3.50
2018-09-17T22:15:42.986Z,4.03
2018-09-17T22:18:15.422Z,3.10
2018-09-17T22:20:48.145Z,3.40
2018-09-17T22:23:20.835Z,3.10
2018-09-17T22:25:53.542Z,3.00
2018-09-17T22:28:25.961Z,3.10
2018-09-17T22:30:58.368Z,2.97
2018-09-17T22:33:30.806Z,3.13
2018-09-17T22:36:03.209Z,3.40
2018-09-17T22:38:35.632Z,3.73
2018-09-17T22:41:08.049Z,3.47
2018-09-17T22:43:40.478Z,3.00
2018-09-17T22:46:12.898Z,3.40
2018-09-17T22:48:45.341Z,3.43
2018-09-17T22:51:17.865Z,3.20
2018-09-17T22:53:50.298Z,3.07
2018-09-17T22:56:22.714Z,3.63
2018-09-17T22:58:55.129Z,3.03
2018-09-17T23:01:27.572Z,3.40
2018-09-17T23:04:00.017Z,3.30
2018-09-17T23:06:32.430Z,3.73
2018-09-17T23:09:07.509Z,3.03
2018-09-17T23:11:40.012Z,4.03
2018-09-17T23:14:12.430Z,3.17
2018-09-17T23:16:44.829Z,3.07
2018-09-17T23:19:17.454Z,3.63
2018-09-17T23:21:49.855Z,3.30
2018-09-17T23:24:22.265Z,3.70
2018-09-17T23:26:54.652Z,3.43
2018-09-17T23:29:27.053Z,3.43
2018-09-17T23:31:59.458Z,3.87
2018-09-17T23:34:31.879Z,3.27
2018-09-17T23:37:04.301Z,4.23
2018-09-17T23:39:36.816Z,3.40
2018-09-17T23:42:09.222Z,4.10
2018-09-17T23:44:41.641Z,3.43
2018-09-17T23:47:14.034Z,3.30
2018-09-17T23:49:46.445Z,3.70
2018-09-17T23:52:18.845Z,3.50
2018-09-17T23:54:51.261Z,3.83
2018-09-17T23:57:23.685Z,3.83
2018-09-17T23:59:56.108Z,3.43
